sensor_id;sensor_type;location;lat;lon;timestamp;P1;durP1;ratioP1;P2;durP2;ratioP2
72649;SDS011;61467;50.674;4.618;2024-02-21T00:01:18;20.92;;;7.85;;
72649;SDS011;61467;50.674;4.618;2024-02-21T00:03:47;20.60;;;7.22;;
72649;SDS011;61467;50.674;4.618;2024-02-21T00:06:14;19.83;;;7.55;;
72649;SDS011;61467;50.674;4.618;2024-02-21T00:08:42;20.23;;;7.90;;
72649;SDS011;61467;50.674;4.618;2024-02-21T00:11:09;19.55;;;7.25;;
72649;SDS011;61467;50.674;4.618;2024-02-21T00:13:36;18.67;;;7.10;;
72649;SDS011;61467;50.674;4.618;2024-02-21T00:16:03;19.40;;;7.05;;
72649;SDS011;61467;50.674;4.618;2024-02-21T00:18:30;20.45;;;7.18;;
72649;SDS011;61467;50.674;4.618;2024-02-21T00:20:57;15.87;;;6.87;;
72649;SDS011;61467;50.674;4.618;2024-02-21T00:23:26;21.08;;;7.45;;
72649;SDS011;61467;50.674;4.618;2024-02-21T00:25:55;20.35;;;6.57;;
72649;SDS011;61467;50.674;4.618;2024-02-21T00:28:21;19.83;;;7.63;;
72649;SDS011;61467;50.674;4.618;2024-02-21T00:30:48;18.65;;;6.60;;
72649;SDS011;61467;50.674;4.618;2024-02-21T00:33:16;16.97;;;6.93;;
72649;SDS011;61467;50.674;4.618;2024-02-21T00:35:43;21.55;;;6.88;;
72649;SDS011;61467;50.674;4.618;2024-02-21T00:38:09;18.45;;;7.15;;
72649;SDS011;61467;50.674;4.618;2024-02-21T00:40:36;20.90;;;6.90;;
72649;SDS011;61467;50.674;4.618;2024-02-21T00:43:04;19.63;;;8.23;;
72649;SDS011;61467;50.674;4.618;2024-02-21T00:45:31;18.93;;;7.30;;
72649;SDS011;61467;50.674;4.618;2024-02-21T00:47:58;18.55;;;6.95;;
72649;SDS011;61467;50.674;4.618;2024-02-21T00:50:25;18.60;;;6.90;;
72649;SDS011;61467;50.674;4.618;2024-02-21T00:52:51;19.45;;;6.38;;
72649;SDS011;61467;50.674;4.618;2024-02-21T00:55:18;18.80;;;6.90;;
72649;SDS011;61467;50.674;4.618;2024-02-21T00:57:45;16.77;;;7.27;;
72649;SDS011;61467;50.674;4.618;2024-02-21T01:00:13;15.82;;;7.03;;
72649;SDS011;61467;50.674;4.618;2024-02-21T01:02:40;16.80;;;6.65;;
72649;SDS011;61467;50.674;4.618;2024-02-21T01:05:07;26.50;;;7.60;;
72649;SDS011;61467;50.674;4.618;2024-02-21T01:07:34;18.23;;;7.32;;
72649;SDS011;61467;50.674;4.618;2024-02-21T01:10:01;20.97;;;7.73;;
72649;SDS011;61467;50.674;4.618;2024-02-21T01:12:28;15.50;;;6.85;;
72649;SDS011;61467;50.674;4.618;2024-02-21T01:14:54;20.42;;;7.72;;
72649;SDS011;61467;50.674;4.618;2024-02-21T01:17:23;19.85;;;7.18;;
72649;SDS011;61467;50.674;4.618;2024-02-21T01:19:49;18.25;;;7.28;;
72649;SDS011;61467;50.674;4.618;2024-02-21T01:22:16;17.53;;;7.43;;
72649;SDS011;61467;50.674;4.618;2024-02-21T01:24:45;18.65;;;7.28;;
72649;SDS011;61467;50.674;4.618;2024-02-21T01:27:12;19.08;;;7.60;;
72649;SDS011;61467;50.674;4.618;2024-02-21T01:29:39;23.30;;;7.60;;
72649;SDS011;61467;50.674;4.618;2024-02-21T01:32:06;20.80;;;7.05;;
72649;SDS011;61467;50.674;4.618;2024-02-21T01:34:34;20.30;;;7.70;;
72649;SDS011;61467;50.674;4.618;2024-02-21T01:37:02;16.38;;;7.45;;
72649;SDS011;61467;50.674;4.618;2024-02-21T01:39:30;20.25;;;6.93;;
72649;SDS011;61467;50.674;4.618;2024-02-21T01:41:57;20.33;;;7.05;;
72649;SDS011;61467;50.674;4.618;2024-02-21T01:44:23;16.52;;;6.97;;
72649;SDS011;61467;50.674;4.618;2024-02-21T01:46:52;21.10;;;5.93;;
72649;SDS011;61467;50.674;4.618;2024-02-21T01:49:19;19.48;;;7.00;;
72649;SDS011;61467;50.674;4.618;2024-02-21T01:51:48;17.08;;;6.55;;
72649;SDS011;61467;50.674;4.618;2024-02-21T01:54:16;18.13;;;6.95;;
72649;SDS011;61467;50.674;4.618;2024-02-21T01:56:44;18.83;;;6.60;;
72649;SDS011;61467;50.674;4.618;2024-02-21T01:59:13;15.30;;;6.23;;
72649;SDS011;61467;50.674;4.618;2024-02-21T02:01:42;19.00;;;7.18;;
72649;SDS011;61467;50.674;4.618;2024-02-21T02:04:10;20.65;;;6.57;;
72649;SDS011;61467;50.674;4.618;2024-02-21T02:06:38;21.90;;;6.47;;
72649;SDS011;61467;50.674;4.618;2024-02-21T02:09:07;17.08;;;6.70;;
72649;SDS011;61467;50.674;4.618;2024-02-21T02:11:34;19.53;;;6.80;;
72649;SDS011;61467;50.674;4.618;2024-02-21T02:14:02;18.88;;;6.90;;
72649;SDS011;61467;50.674;4.618;2024-02-21T02:16:29;18.83;;;6.90;;
72649;SDS011;61467;50.674;4.618;2024-02-21T02:18:56;16.02;;;5.85;;
72649;SDS011;61467;50.674;4.618;2024-02-21T02:21:23;21.25;;;7.35;;
72649;SDS011;61467;50.674;4.618;2024-02-21T02:23:56;17.07;;;6.57;;
72649;SDS011;61467;50.674;4.618;2024-02-21T02:26:23;16.20;;;6.90;;
72649;SDS011;61467;50.674;4.618;2024-02-21T02:28:49;19.42;;;7.00;;
72649;SDS011;61467;50.674;4.618;2024-02-21T02:31:16;17.48;;;6.07;;
72649;SDS011;61467;50.674;4.618;2024-02-21T02:33:43;22.33;;;6.88;;
72649;SDS011;61467;50.674;4.618;2024-02-21T02:36:10;16.77;;;6.23;;
72649;SDS011;61467;50.674;4.618;2024-02-21T02:38:37;16.20;;;6.90;;
72649;SDS011;61467;50.674;4.618;2024-02-21T02:41:05;14.52;;;6.03;;
72649;SDS011;61467;50.674;4.618;2024-02-21T02:43:32;16.33;;;6.13;;
72649;SDS011;61467;50.674;4.618;2024-02-21T02:45:58;16.38;;;5.72;;
72649;SDS011;61467;50.674;4.618;2024-02-21T02:48:25;19.77;;;6.00;;
72649;SDS011;61467;50.674;4.618;2024-02-21T02:50:52;20.02;;;6.00;;
72649;SDS011;61467;50.674;4.618;2024-02-21T02:53:19;16.92;;;6.25;;
72649;SDS011;61467;50.674;4.618;2024-02-21T02:55:45;14.00;;;6.00;;
72649;SDS011;61467;50.674;4.618;2024-02-21T02:58:14;18.55;;;6.45;;
72649;SDS011;61467;50.674;4.618;2024-02-21T03:00:40;18.73;;;6.53;;
72649;SDS011;61467;50.674;4.618;2024-02-21T03:03:07;15.48;;;6.35;;
72649;SDS011;61467;50.674;4.618;2024-02-21T03:05:34;17.08;;;6.03;;
72649;SDS011;61467;50.674;4.618;2024-02-21T03:08:01;17.33;;;6.05;;
72649;SDS011;61467;50.674;4.618;2024-02-21T03:10:32;17.02;;;6.10;;
72649;SDS011;61467;50.674;4.618;2024-02-21T03:12:58;14.50;;;6.20;;
72649;SDS011;61467;50.674;4.618;2024-02-21T03:15:27;16.70;;;6.22;;
72649;SDS011;61467;50.674;4.618;2024-02-21T03:17:53;17.30;;;5.88;;
72649;SDS011;61467;50.674;4.618;2024-02-21T03:20:20;15.73;;;6.70;;
72649;SDS011;61467;50.674;4.618;2024-02-21T03:22:48;16.35;;;6.28;;
72649;SDS011;61467;50.674;4.618;2024-02-21T03:25:15;15.37;;;6.77;;
72649;SDS011;61467;50.674;4.618;2024-02-21T03:27:42;15.60;;;6.32;;
72649;SDS011;61467;50.674;4.618;2024-02-21T03:30:09;17.73;;;6.68;;
72649;SDS011;61467;50.674;4.618;2024-02-21T03:32:37;22.00;;;7.22;;
72649;SDS011;61467;50.674;4.618;2024-02-21T03:35:05;22.80;;;7.40;;
72649;SDS011;61467;50.674;4.618;2024-02-21T03:37:35;16.53;;;6.23;;
72649;SDS011;61467;50.674;4.618;2024-02-21T03:40:02;18.33;;;6.95;;
72649;SDS011;61467;50.674;4.618;2024-02-21T03:42:29;14.70;;;5.93;;
72649;SDS011;61467;50.674;4.618;2024-02-21T03:44:56;16.85;;;6.30;;
72649;SDS011;61467;50.674;4.618;2024-02-21T03:47:23;20.65;;;7.10;;
72649;SDS011;61467;50.674;4.618;2024-02-21T03:49:51;15.83;;;6.30;;
72649;SDS011;61467;50.674;4.618;2024-02-21T03:52:18;18.08;;;6.35;;
72649;SDS011;61467;50.674;4.618;2024-02-21T03:54:45;21.95;;;7.45;;
72649;SDS011;61467;50.674;4.618;2024-02-21T03:57:11;14.88;;;6.45;;
72649;SDS011;61467;50.674;4.618;2024-02-21T03:59:38;19.00;;;6.78;;
72649;SDS011;61467;50.674;4.618;2024-02-21T04:02:05;19.33;;;6.57;;
72649;SDS011;61467;50.674;4.618;2024-02-21T04:04:33;15.27;;;6.63;;
72649;SDS011;61467;50.674;4.618;2024-02-21T04:07:03;16.45;;;7.00;;
72649;SDS011;61467;50.674;4.618;2024-02-21T04:09:31;15.70;;;6.28;;
72649;SDS011;61467;50.674;4.618;2024-02-21T04:11:59;14.77;;;6.38;;
72649;SDS011;61467;50.674;4.618;2024-02-21T04:14:26;20.07;;;7.03;;
72649;SDS011;61467;50.674;4.618;2024-02-21T04:16:52;15.27;;;6.05;;
72649;SDS011;61467;50.674;4.618;2024-02-21T04:19:19;18.02;;;6.90;;
72649;SDS011;61467;50.674;4.618;2024-02-21T04:21:46;17.73;;;7.28;;
72649;SDS011;61467;50.674;4.618;2024-02-21T04:24:14;18.85;;;6.75;;
72649;SDS011;61467;50.674;4.618;2024-02-21T04:26:41;13.63;;;6.13;;
72649;SDS011;61467;50.674;4.618;2024-02-21T04:29:08;19.20;;;6.60;;
72649;SDS011;61467;50.674;4.618;2024-02-21T04:31:35;15.50;;;7.00;;
72649;SDS011;61467;50.674;4.618;2024-02-21T04:34:02;14.85;;;6.15;;
72649;SDS011;61467;50.674;4.618;2024-02-21T04:36:29;15.25;;;6.70;;
72649;SDS011;61467;50.674;4.618;2024-02-21T04:38:55;17.53;;;6.77;;
72649;SDS011;61467;50.674;4.618;2024-02-21T04:41:24;16.02;;;6.00;;
72649;SDS011;61467;50.674;4.618;2024-02-21T04:43:51;15.80;;;5.18;;
72649;SDS011;61467;50.674;4.618;2024-02-21T04:46:18;14.00;;;5.50;;
72649;SDS011;61467;50.674;4.618;2024-02-21T04:48:45;15.20;;;5.82;;
72649;SDS011;61467;50.674;4.618;2024-02-21T04:51:11;13.67;;;5.70;;
72649;SDS011;61467;50.674;4.618;2024-02-21T04:53:39;13.80;;;5.68;;
72649;SDS011;61467;50.674;4.618;2024-02-21T04:56:06;14.98;;;5.97;;
72649;SDS011;61467;50.674;4.618;2024-02-21T04:58:37;12.48;;;5.70;;
72649;SDS011;61467;50.674;4.618;2024-02-21T05:01:04;16.17;;;6.10;;
72649;SDS011;61467;50.674;4.618;2024-02-21T05:03:31;14.67;;;5.13;;
72649;SDS011;61467;50.674;4.618;2024-02-21T05:05:58;15.27;;;5.43;;
72649;SDS011;61467;50.674;4.618;2024-02-21T05:08:25;17.95;;;5.85;;
72649;SDS011;61467;50.674;4.618;2024-02-21T05:10:52;11.70;;;5.85;;
72649;SDS011;61467;50.674;4.618;2024-02-21T05:13:19;12.48;;;5.32;;
72649;SDS011;61467;50.674;4.618;2024-02-21T05:15:47;12.23;;;5.00;;
72649;SDS011;61467;50.674;4.618;2024-02-21T05:18:14;15.20;;;5.07;;
72649;SDS011;61467;50.674;4.618;2024-02-21T05:20:40;16.77;;;5.22;;
72649;SDS011;61467;50.674;4.618;2024-02-21T05:23:07;11.15;;;5.00;;
72649;SDS011;61467;50.674;4.618;2024-02-21T05:25:34;10.77;;;4.90;;
72649;SDS011;61467;50.674;4.618;2024-02-21T05:28:01;15.07;;;5.40;;
72649;SDS011;61467;50.674;4.618;2024-02-21T05:30:28;10.95;;;4.97;;
72649;SDS011;61467;50.674;4.618;2024-02-21T05:32:56;12.40;;;4.72;;
72649;SDS011;61467;50.674;4.618;2024-02-21T05:35:25;12.90;;;5.15;;
72649;SDS011;61467;50.674;4.618;2024-02-21T05:37:53;14.95;;;5.70;;
72649;SDS011;61467;50.674;4.618;2024-02-21T05:40:19;16.50;;;5.90;;
72649;SDS011;61467;50.674;4.618;2024-02-21T05:42:46;13.90;;;5.43;;
72649;SDS011;61467;50.674;4.618;2024-02-21T05:45:13;13.30;;;6.13;;
72649;SDS011;61467;50.674;4.618;2024-02-21T05:47:40;14.30;;;6.00;;
72649;SDS011;61467;50.674;4.618;2024-02-21T05:50:09;17.20;;;6.20;;
72649;SDS011;61467;50.674;4.618;2024-02-21T05:52:37;17.77;;;6.40;;
72649;SDS011;61467;50.674;4.618;2024-02-21T05:55:04;13.65;;;5.97;;
72649;SDS011;61467;50.674;4.618;2024-02-21T05:57:32;14.07;;;6.50;;
72649;SDS011;61467;50.674;4.618;2024-02-21T06:00:02;16.70;;;6.05;;
72649;SDS011;61467;50.674;4.618;2024-02-21T06:02:30;14.13;;;5.80;;
72649;SDS011;61467;50.674;4.618;2024-02-21T06:04:57;18.30;;;7.03;;
72649;SDS011;61467;50.674;4.618;2024-02-21T06:07:25;17.35;;;7.57;;
72649;SDS011;61467;50.674;4.618;2024-02-21T06:09:52;19.15;;;7.25;;
72649;SDS011;61467;50.674;4.618;2024-02-21T06:12:19;18.30;;;7.55;;
72649;SDS011;61467;50.674;4.618;2024-02-21T06:14:45;15.82;;;7.03;;
72649;SDS011;61467;50.674;4.618;2024-02-21T06:17:12;13.23;;;5.90;;
72649;SDS011;61467;50.674;4.618;2024-02-21T06:19:39;14.18;;;6.90;;
72649;SDS011;61467;50.674;4.618;2024-02-21T06:22:07;17.70;;;7.05;;
72649;SDS011;61467;50.674;4.618;2024-02-21T06:24:35;15.57;;;7.22;;
72649;SDS011;61467;50.674;4.618;2024-02-21T06:27:02;20.25;;;6.88;;
72649;SDS011;61467;50.674;4.618;2024-02-21T06:29:31;15.53;;;6.60;;
72649;SDS011;61467;50.674;4.618;2024-02-21T06:31:57;16.42;;;7.40;;
72649;SDS011;61467;50.674;4.618;2024-02-21T06:34:24;15.88;;;7.55;;
72649;SDS011;61467;50.674;4.618;2024-02-21T06:36:51;18.13;;;7.10;;
72649;SDS011;61467;50.674;4.618;2024-02-21T06:39:18;17.70;;;7.72;;
72649;SDS011;61467;50.674;4.618;2024-02-21T06:41:46;17.57;;;7.27;;
72649;SDS011;61467;50.674;4.618;2024-02-21T06:44:13;16.98;;;7.30;;
72649;SDS011;61467;50.674;4.618;2024-02-21T06:46:39;16.27;;;8.15;;
72649;SDS011;61467;50.674;4.618;2024-02-21T06:49:06;15.05;;;6.40;;
72649;SDS011;61467;50.674;4.618;2024-02-21T06:51:33;16.58;;;7.22;;
72649;SDS011;61467;50.674;4.618;2024-02-21T06:54:02;17.20;;;7.30;;
72649;SDS011;61467;50.674;4.618;2024-02-21T06:56:29;19.00;;;7.90;;
72649;SDS011;61467;50.674;4.618;2024-02-21T06:58:57;16.70;;;7.57;;
72649;SDS011;61467;50.674;4.618;2024-02-21T07:01:24;19.08;;;7.63;;
72649;SDS011;61467;50.674;4.618;2024-02-21T07:03:51;15.65;;;8.07;;
72649;SDS011;61467;50.674;4.618;2024-02-21T07:06:18;14.33;;;6.47;;
72649;SDS011;61467;50.674;4.618;2024-02-21T07:08:44;18.10;;;8.07;;
72649;SDS011;61467;50.674;4.618;2024-02-21T07:11:14;18.73;;;7.82;;
72649;SDS011;61467;50.674;4.618;2024-02-21T07:13:40;18.17;;;6.82;;
72649;SDS011;61467;50.674;4.618;2024-02-21T07:16:09;17.63;;;7.15;;
72649;SDS011;61467;50.674;4.618;2024-02-21T07:18:36;14.03;;;6.63;;
72649;SDS011;61467;50.674;4.618;2024-02-21T07:21:03;15.63;;;7.00;;
72649;SDS011;61467;50.674;4.618;2024-02-21T07:23:30;17.48;;;7.60;;
72649;SDS011;61467;50.674;4.618;2024-02-21T07:25:57;14.07;;;6.75;;
72649;SDS011;61467;50.674;4.618;2024-02-21T07:28:24;15.02;;;6.88;;
72649;SDS011;61467;50.674;4.618;2024-02-21T07:30:50;13.60;;;6.67;;
72649;SDS011;61467;50.674;4.618;2024-02-21T07:33:18;16.77;;;6.40;;
72649;SDS011;61467;50.674;4.618;2024-02-21T07:35:45;15.65;;;6.70;;
72649;SDS011;61467;50.674;4.618;2024-02-21T07:38:12;16.38;;;6.05;;
72649;SDS011;61467;50.674;4.618;2024-02-21T07:40:39;13.35;;;6.07;;
72649;SDS011;61467;50.674;4.618;2024-02-21T07:43:06;15.23;;;5.87;;
72649;SDS011;61467;50.674;4.618;2024-02-21T07:45:33;18.05;;;6.82;;
72649;SDS011;61467;50.674;4.618;2024-02-21T07:47:59;14.80;;;7.35;;
72649;SDS011;61467;50.674;4.618;2024-02-21T07:50:28;14.55;;;6.95;;
72649;SDS011;61467;50.674;4.618;2024-02-21T07:52:55;15.05;;;7.30;;
72649;SDS011;61467;50.674;4.618;2024-02-21T07:55:22;16.97;;;6.57;;
72649;SDS011;61467;50.674;4.618;2024-02-21T07:57:49;16.73;;;7.45;;
72649;SDS011;61467;50.674;4.618;2024-02-21T08:00:16;13.63;;;5.35;;
72649;SDS011;61467;50.674;4.618;2024-02-21T08:02:47;13.80;;;5.35;;
72649;SDS011;61467;50.674;4.618;2024-02-21T08:05:14;14.50;;;5.55;;
72649;SDS011;61467;50.674;4.618;2024-02-21T08:07:42;11.63;;;4.73;;
72649;SDS011;61467;50.674;4.618;2024-02-21T08:10:09;11.43;;;4.97;;
72649;SDS011;61467;50.674;4.618;2024-02-21T08:12:38;11.50;;;4.15;;
72649;SDS011;61467;50.674;4.618;2024-02-21T08:15:05;11.85;;;5.20;;
72649;SDS011;61467;50.674;4.618;2024-02-21T08:17:33;13.00;;;4.10;;
72649;SDS011;61467;50.674;4.618;2024-02-21T08:20:00;14.23;;;4.37;;
72649;SDS011;61467;50.674;4.618;2024-02-21T08:22:28;11.27;;;4.40;;
72649;SDS011;61467;50.674;4.618;2024-02-21T08:24:56;13.60;;;5.10;;
72649;SDS011;61467;50.674;4.618;2024-02-21T08:27:23;11.32;;;4.15;;
72649;SDS011;61467;50.674;4.618;2024-02-21T08:29:49;12.93;;;4.60;;
72649;SDS011;61467;50.674;4.618;2024-02-21T08:32:16;11.73;;;4.03;;
72649;SDS011;61467;50.674;4.618;2024-02-21T08:34:43;12.18;;;5.10;;
72649;SDS011;61467;50.674;4.618;2024-02-21T08:37:10;13.15;;;4.78;;
72649;SDS011;61467;50.674;4.618;2024-02-21T08:39:37;12.20;;;4.70;;
72649;SDS011;61467;50.674;4.618;2024-02-21T08:42:05;11.45;;;4.38;;
72649;SDS011;61467;50.674;4.618;2024-02-21T08:44:32;10.07;;;4.43;;
72649;SDS011;61467;50.674;4.618;2024-02-21T08:46:59;10.82;;;4.35;;
72649;SDS011;61467;50.674;4.618;2024-02-21T08:49:28;11.40;;;4.50;;
72649;SDS011;61467;50.674;4.618;2024-02-21T08:51:56;11.80;;;4.43;;
72649;SDS011;61467;50.674;4.618;2024-02-21T08:54:23;13.40;;;4.15;;
72649;SDS011;61467;50.674;4.618;2024-02-21T08:56:49;12.57;;;4.70;;
72649;SDS011;61467;50.674;4.618;2024-02-21T08:59:18;11.55;;;4.35;;
72649;SDS011;61467;50.674;4.618;2024-02-21T09:01:45;13.85;;;4.70;;
72649;SDS011;61467;50.674;4.618;2024-02-21T09:04:14;14.30;;;5.53;;
72649;SDS011;61467;50.674;4.618;2024-02-21T09:06:40;12.38;;;4.55;;
72649;SDS011;61467;50.674;4.618;2024-02-21T09:09:07;11.10;;;4.27;;
72649;SDS011;61467;50.674;4.618;2024-02-21T09:11:35;10.68;;;3.78;;
72649;SDS011;61467;50.674;4.618;2024-02-21T09:14:02;11.32;;;4.72;;
72649;SDS011;61467;50.674;4.618;2024-02-21T09:16:31;11.52;;;3.75;;
72649;SDS011;61467;50.674;4.618;2024-02-21T09:18:58;11.18;;;4.53;;
72649;SDS011;61467;50.674;4.618;2024-02-21T09:21:25;10.73;;;3.93;;
72649;SDS011;61467;50.674;4.618;2024-02-21T09:23:53;11.88;;;3.90;;
72649;SDS011;61467;50.674;4.618;2024-02-21T09:26:20;11.52;;;4.10;;
72649;SDS011;61467;50.674;4.618;2024-02-21T09:28:46;11.45;;;4.10;;
72649;SDS011;61467;50.674;4.618;2024-02-21T09:31:13;9.65;;;3.90;;
72649;SDS011;61467;50.674;4.618;2024-02-21T09:33:41;11.83;;;3.63;;
72649;SDS011;61467;50.674;4.618;2024-02-21T09:36:08;10.02;;;3.75;;
72649;SDS011;61467;50.674;4.618;2024-02-21T09:38:35;10.55;;;3.97;;
72649;SDS011;61467;50.674;4.618;2024-02-21T09:41:04;12.07;;;4.00;;
72649;SDS011;61467;50.674;4.618;2024-02-21T09:43:39;9.93;;;4.18;;
72649;SDS011;61467;50.674;4.618;2024-02-21T09:46:08;8.67;;;3.70;;
72649;SDS011;61467;50.674;4.618;2024-02-21T09:48:45;9.65;;;3.60;;
72649;SDS011;61467;50.674;4.618;2024-02-21T09:51:21;11.07;;;3.40;;
72649;SDS011;61467;50.674;4.618;2024-02-21T09:53:48;12.45;;;3.33;;
72649;SDS011;61467;50.674;4.618;2024-02-21T09:56:17;10.93;;;3.70;;
72649;SDS011;61467;50.674;4.618;2024-02-21T09:58:44;10.27;;;3.70;;
72649;SDS011;61467;50.674;4.618;2024-02-21T10:01:10;9.82;;;3.58;;
72649;SDS011;61467;50.674;4.618;2024-02-21T10:03:37;9.23;;;4.03;;
72649;SDS011;61467;50.674;4.618;2024-02-21T10:06:06;8.95;;;3.80;;
72649;SDS011;61467;50.674;4.618;2024-02-21T10:08:33;9.75;;;4.15;;
72649;SDS011;61467;50.674;4.618;2024-02-21T10:10:59;12.70;;;3.73;;
72649;SDS011;61467;50.674;4.618;2024-02-21T10:13:28;12.13;;;4.22;;
72649;SDS011;61467;50.674;4.618;2024-02-21T10:18:40;8.95;;;3.50;;
72649;SDS011;61467;50.674;4.618;2024-02-21T10:21:08;15.10;;;3.97;;
72649;SDS011;61467;50.674;4.618;2024-02-21T10:23:44;11.73;;;3.87;;
72649;SDS011;61467;50.674;4.618;2024-02-21T10:26:12;13.05;;;4.10;;
72649;SDS011;61467;50.674;4.618;2024-02-21T10:28:39;11.82;;;4.00;;
72649;SDS011;61467;50.674;4.618;2024-02-21T10:31:08;12.02;;;3.75;;
72649;SDS011;61467;50.674;4.618;2024-02-21T10:33:36;11.32;;;3.45;;
72649;SDS011;61467;50.674;4.618;2024-02-21T10:36:08;10.93;;;3.80;;
72649;SDS011;61467;50.674;4.618;2024-02-21T10:38:36;9.68;;;3.25;;
72649;SDS011;61467;50.674;4.618;2024-02-21T10:41:04;13.63;;;3.15;;
72649;SDS011;61467;50.674;4.618;2024-02-21T10:43:33;10.55;;;3.97;;
72649;SDS011;61467;50.674;4.618;2024-02-21T10:46:05;9.45;;;3.33;;
72649;SDS011;61467;50.674;4.618;2024-02-21T10:48:36;13.10;;;4.00;;
72649;SDS011;61467;50.674;4.618;2024-02-21T10:51:14;9.23;;;3.08;;
72649;SDS011;61467;50.674;4.618;2024-02-21T10:53:44;9.32;;;3.20;;
72649;SDS011;61467;50.674;4.618;2024-02-21T10:56:18;9.10;;;3.55;;
72649;SDS011;61467;50.674;4.618;2024-02-21T10:58:49;9.98;;;3.75;;
72649;SDS011;61467;50.674;4.618;2024-02-21T11:01:17;12.17;;;3.97;;
72649;SDS011;61467;50.674;4.618;2024-02-21T11:03:45;8.88;;;3.95;;
72649;SDS011;61467;50.674;4.618;2024-02-21T11:06:16;9.55;;;3.08;;
72649;SDS011;61467;50.674;4.618;2024-02-21T11:08:44;9.43;;;3.00;;
72649;SDS011;61467;50.674;4.618;2024-02-21T11:11:12;7.88;;;2.60;;
72649;SDS011;61467;50.674;4.618;2024-02-21T11:13:42;9.70;;;3.30;;
72649;SDS011;61467;50.674;4.618;2024-02-21T11:16:11;10.57;;;3.40;;
72649;SDS011;61467;50.674;4.618;2024-02-21T11:18:47;9.38;;;3.10;;
72649;SDS011;61467;50.674;4.618;2024-02-21T11:21:13;10.13;;;3.88;;
72649;SDS011;61467;50.674;4.618;2024-02-21T11:23:42;11.93;;;3.70;;
72649;SDS011;61467;50.674;4.618;2024-02-21T11:26:09;13.13;;;3.80;;
72649;SDS011;61467;50.674;4.618;2024-02-21T11:28:36;7.13;;;3.15;;
72649;SDS011;61467;50.674;4.618;2024-02-21T11:31:06;10.35;;;3.45;;
72649;SDS011;61467;50.674;4.618;2024-02-21T11:33:34;10.63;;;3.60;;
72649;SDS011;61467;50.674;4.618;2024-02-21T11:36:01;7.93;;;3.15;;
72649;SDS011;61467;50.674;4.618;2024-02-21T11:38:31;8.40;;;2.70;;
72649;SDS011;61467;50.674;4.618;2024-02-21T11:40:58;8.13;;;2.70;;
72649;SDS011;61467;50.674;4.618;2024-02-21T11:43:25;11.32;;;3.75;;
72649;SDS011;61467;50.674;4.618;2024-02-21T11:45:58;11.38;;;3.20;;
72649;SDS011;61467;50.674;4.618;2024-02-21T11:48:26;12.02;;;3.60;;
72649;SDS011;61467;50.674;4.618;2024-02-21T11:50:53;11.77;;;3.50;;
72649;SDS011;61467;50.674;4.618;2024-02-21T11:53:21;8.90;;;3.03;;
72649;SDS011;61467;50.674;4.618;2024-02-21T11:55:49;7.40;;;3.00;;
72649;SDS011;61467;50.674;4.618;2024-02-21T11:58:16;10.30;;;3.50;;
72649;SDS011;61467;50.674;4.618;2024-02-21T12:00:43;10.10;;;3.40;;
72649;SDS011;61467;50.674;4.618;2024-02-21T12:03:10;9.00;;;3.30;;
72649;SDS011;61467;50.674;4.618;2024-02-21T12:05:37;11.05;;;3.70;;
72649;SDS011;61467;50.674;4.618;2024-02-21T12:08:04;11.20;;;3.05;;
72649;SDS011;61467;50.674;4.618;2024-02-21T12:10:30;8.93;;;3.10;;
72649;SDS011;61467;50.674;4.618;2024-02-21T12:13:06;10.40;;;4.00;;
72649;SDS011;61467;50.674;4.618;2024-02-21T12:15:34;9.73;;;3.30;;
72649;SDS011;61467;50.674;4.618;2024-02-21T12:18:01;8.32;;;3.00;;
72649;SDS011;61467;50.674;4.618;2024-02-21T12:20:28;8.48;;;3.67;;
72649;SDS011;61467;50.674;4.618;2024-02-21T12:22:55;11.57;;;3.08;;
72649;SDS011;61467;50.674;4.618;2024-02-21T12:25:23;8.98;;;3.25;;
72649;SDS011;61467;50.674;4.618;2024-02-21T12:27:52;8.33;;;3.23;;
72649;SDS011;61467;50.674;4.618;2024-02-21T12:30:20;9.75;;;3.90;;
72649;SDS011;61467;50.674;4.618;2024-02-21T12:32:47;8.57;;;2.72;;
72649;SDS011;61467;50.674;4.618;2024-02-21T12:35:14;9.10;;;3.28;;
72649;SDS011;61467;50.674;4.618;2024-02-21T12:37:42;10.02;;;3.50;;
72649;SDS011;61467;50.674;4.618;2024-02-21T12:40:10;8.90;;;3.27;;
72649;SDS011;61467;50.674;4.618;2024-02-21T12:42:38;8.15;;;3.42;;
72649;SDS011;61467;50.674;4.618;2024-02-21T12:45:05;10.27;;;2.83;;
72649;SDS011;61467;50.674;4.618;2024-02-21T12:47:34;10.05;;;3.47;;
72649;SDS011;61467;50.674;4.618;2024-02-21T12:50:01;9.38;;;3.05;;
72649;SDS011;61467;50.674;4.618;2024-02-21T12:52:31;8.57;;;3.80;;
72649;SDS011;61467;50.674;4.618;2024-02-21T12:54:58;9.55;;;3.60;;
72649;SDS011;61467;50.674;4.618;2024-02-21T12:57:25;7.90;;;3.05;;
72649;SDS011;61467;50.674;4.618;2024-02-21T12:59:52;7.90;;;3.20;;
72649;SDS011;61467;50.674;4.618;2024-02-21T13:02:18;8.55;;;3.88;;
72649;SDS011;61467;50.674;4.618;2024-02-21T13:04:47;8.47;;;3.83;;
72649;SDS011;61467;50.674;4.618;2024-02-21T13:07:14;10.05;;;3.78;;
72649;SDS011;61467;50.674;4.618;2024-02-21T13:09:41;10.40;;;3.53;;
72649;SDS011;61467;50.674;4.618;2024-02-21T13:12:08;11.10;;;3.92;;
72649;SDS011;61467;50.674;4.618;2024-02-21T13:14:35;9.95;;;3.63;;
72649;SDS011;61467;50.674;4.618;2024-02-21T13:17:04;13.17;;;3.60;;
72649;SDS011;61467;50.674;4.618;2024-02-21T13:19:31;9.60;;;3.22;;
72649;SDS011;61467;50.674;4.618;2024-02-21T13:21:59;12.85;;;4.05;;
72649;SDS011;61467;50.674;4.618;2024-02-21T13:24:27;9.25;;;3.63;;
72649;SDS011;61467;50.674;4.618;2024-02-21T13:26:54;9.25;;;3.22;;
72649;SDS011;61467;50.674;4.618;2024-02-21T13:29:20;12.80;;;3.50;;
72649;SDS011;61467;50.674;4.618;2024-02-21T13:31:47;9.55;;;3.38;;
72649;SDS011;61467;50.674;4.618;2024-02-21T13:34:15;12.60;;;3.63;;
72649;SDS011;61467;50.674;4.618;2024-02-21T13:36:42;9.63;;;3.60;;
72649;SDS011;61467;50.674;4.618;2024-02-21T13:39:10;9.02;;;3.20;;
72649;SDS011;61467;50.674;4.618;2024-02-21T13:41:40;7.53;;;2.87;;
72649;SDS011;61467;50.674;4.618;2024-02-21T13:44:07;10.43;;;3.00;;
72649;SDS011;61467;50.674;4.618;2024-02-21T13:46:35;10.52;;;3.47;;
72649;SDS011;61467;50.674;4.618;2024-02-21T13:49:02;9.45;;;3.38;;
72649;SDS011;61467;50.674;4.618;2024-02-21T13:51:31;8.60;;;3.13;;
72649;SDS011;61467;50.674;4.618;2024-02-21T13:53:58;8.20;;;3.57;;
72649;SDS011;61467;50.674;4.618;2024-02-21T13:56:27;9.63;;;3.10;;
72649;SDS011;61467;50.674;4.618;2024-02-21T13:58:53;10.60;;;3.33;;
72649;SDS011;61467;50.674;4.618;2024-02-21T14:01:20;10.65;;;3.40;;
72649;SDS011;61467;50.674;4.618;2024-02-21T14:03:47;11.57;;;3.65;;
72649;SDS011;61467;50.674;4.618;2024-02-21T14:06:14;8.67;;;3.07;;
72649;SDS011;61467;50.674;4.618;2024-02-21T14:08:41;10.82;;;3.20;;
72649;SDS011;61467;50.674;4.618;2024-02-21T14:11:07;10.90;;;3.35;;
72649;SDS011;61467;50.674;4.618;2024-02-21T14:13:36;7.95;;;2.97;;
72649;SDS011;61467;50.674;4.618;2024-02-21T14:16:02;8.43;;;2.97;;
72649;SDS011;61467;50.674;4.618;2024-02-21T14:18:36;9.47;;;2.93;;
72649;SDS011;61467;50.674;4.618;2024-02-21T14:21:03;10.32;;;3.05;;
72649;SDS011;61467;50.674;4.618;2024-02-21T14:23:30;11.73;;;3.20;;
72649;SDS011;61467;50.674;4.618;2024-02-21T14:25:58;10.75;;;3.58;;
72649;SDS011;61467;50.674;4.618;2024-02-21T14:28:25;10.63;;;3.60;;
72649;SDS011;61467;50.674;4.618;2024-02-21T14:30:53;9.37;;;3.40;;
72649;SDS011;61467;50.674;4.618;2024-02-21T14:33:22;9.65;;;3.67;;
72649;SDS011;61467;50.674;4.618;2024-02-21T14:35:49;11.40;;;3.75;;
72649;SDS011;61467;50.674;4.618;2024-02-21T14:38:16;9.80;;;3.10;;
72649;SDS011;61467;50.674;4.618;2024-02-21T14:40:44;10.35;;;3.42;;